Time;durP1;ratioP1;P1;durP2;ratioP2;P2;SDS_P1;SDS_P2;PMS_P1;PMS_P2;Temp;Humidity;BMP_temperature;BMP_pressure;BME280_temperature;BME280_humidity;BME280_pressure;Samples;Min_cycle;Max_cycle;Signal;HPM_P1;HPM_P2
2023/10/30 00:01:16;;;;;;;1.90;0.47;;;;;;;18.55;53.21;99415.88;4365526;32;33920;-88
2023/10/30 00:03:44;;;;;;;0.03;0.03;;;;;;;18.48;53.22;99407.50;4393341;32;32619;-88
2023/10/30 00:06:12;;;;;;;0.10;0.10;;;;;;;18.48;53.12;99415.53;4393096;32;32849;-88
2023/10/30 00:08:40;;;;;;;1.27;0.70;;;;;;;18.34;53.48;99415.81;4367363;32;34260;-89
2023/10/30 00:11:08;;;;;;;0.37;0.32;;;;;;;18.10;54.01;99421.34;4380324;32;32952;-88
2023/10/30 00:13:36;;;;;;;0.75;0.52;;;;;;;18.32;53.42;99420.44;4376063;32;33098;-88
2023/10/30 00:16:03;;;;;;;0.47;0.13;;;;;;;18.42;53.29;99426.75;4390111;32;32937;-88
2023/10/30 00:18:34;;;;;;;2.05;1.08;;;;;;;18.32;53.59;99431.13;4415783;32;34304;-88
2023/10/30 00:21:01;;;;;;;0.00;0.00;;;;;;;18.58;52.81;99432.50;4394329;32;33416;-90
2023/10/30 00:23:30;;;;;;;0.35;0.10;;;;;;;18.73;52.41;99424.22;4399628;32;32321;-89
2023/10/30 00:26:00;;;;;;;0.00;0.00;;;;;;;18.76;52.28;99423.97;4406362;32;32757;-90
2023/10/30 00:28:30;;;;;;;0.00;0.00;;;;;;;18.46;53.07;99422.81;4404942;32;33663;-90
2023/10/30 00:30:59;;;;;;;0.00;0.00;;;;;;;18.55;52.93;99431.91;4407403;32;31983;-87
2023/10/30 00:33:27;;;;;;;0.00;0.00;;;;;;;18.59;52.82;99418.16;4395725;32;32270;-88
2023/10/30 00:35:54;;;;;;;1.35;0.52;;;;;;;18.49;52.68;99427.91;4395865;32;32708;-87
2023/10/30 00:38:23;;;;;;;1.70;1.02;;;;;;;18.16;53.64;99421.69;4395671;32;33523;-89
2023/10/30 00:40:51;;;;;;;0.10;0.03;;;;;;;18.09;54.05;99425.84;4396224;32;32860;-88
2023/10/30 00:43:19;;;;;;;0.98;0.10;;;;;;;18.42;53.22;99421.41;4407945;32;32609;-89
2023/10/30 00:45:48;;;;;;;1.65;0.98;;;;;;;18.49;52.95;99417.22;4406217;32;32856;-89
2023/10/30 00:48:16;;;;;;;0.00;0.00;;;;;;;18.33;53.04;99419.47;4395827;32;32712;-89
2023/10/30 00:50:44;;;;;;;0.75;0.37;;;;;;;18.21;53.24;99423.13;4401350;32;32938;-89
2023/10/30 00:53:11;;;;;;;0.15;0.15;;;;;;;18.00;53.79;99405.22;4395771;32;32247;-89
2023/10/30 00:55:42;;;;;;;0.25;0.25;;;;;;;18.22;53.40;99404.28;4408524;32;32722;-89
2023/10/30 00:58:10;;;;;;;0.20;0.10;;;;;;;18.11;53.37;99413.19;4396186;32;33096;-89
2023/10/30 01:00:37;;;;;;;0.00;0.00;;;;;;;17.97;53.76;99405.44;4409006;32;33840;-89
2023/10/30 01:03:06;;;;;;;0.20;0.20;;;;;;;18.16;53.15;99404.81;4396470;32;33256;-89
2023/10/30 01:05:35;;;;;;;0.17;0.17;;;;;;;17.96;53.55;99398.41;4408429;32;32428;-88
2023/10/30 01:08:08;;;;;;;0.20;0.20;;;;;;;17.85;53.73;99401.06;4407176;32;33429;-89
2023/10/30 01:10:37;;;;;;;0.00;0.00;;;;;;;17.93;53.59;99398.66;4407939;32;34242;-90
2023/10/30 01:13:05;;;;;;;4.47;1.27;;;;;;;17.86;53.86;99398.31;4407994;32;35000;-90
2023/10/30 01:15:33;;;;;;;0.60;0.60;;;;;;;18.11;53.29;99401.66;4396392;32;34185;-91
2023/10/30 01:18:02;;;;;;;0.00;0.00;;;;;;;18.00;53.40;99397.19;4409149;32;33089;-91
2023/10/30 01:21:08;;;;;;;0.68;0.60;;;;;;;18.02;53.19;99397.91;4368395;32;32917;-91
2023/10/30 01:23:36;;;;;;;0.00;0.00;;;;;;;18.07;53.29;99397.53;4352887;32;31401;-92
2023/10/30 01:26:23;;;;;;;0.00;0.00;;;;;;;18.32;52.57;99396.38;4356575;32;32610;-91
2023/10/30 01:28:54;;;;;;;0.20;0.20;;;;;;;18.15;53.13;99387.94;4362111;32;34130;-91
2023/10/30 01:31:41;;;;;;;0.13;0.13;;;;;;;18.09;53.09;99391.09;4373349;32;32769;-91
2023/10/30 01:35:02;;;;;;;0.00;0.00;;;;;;;18.08;53.17;99397.41;4360847;32;32192;-91
2023/10/30 01:37:52;;;;;;;0.00;0.00;;;;;;;18.27;52.66;99395.91;4369384;32;32780;-91
2023/10/30 01:40:27;;;;;;;0.00;0.00;;;;;;;18.46;52.26;99388.06;4375305;32;33180;-91
2023/10/30 01:43:41;;;;;;;5.97;0.20;;;;;;;18.26;52.68;99391.53;4356570;32;32662;-92
2023/10/30 01:46:51;;;;;;;0.00;0.00;;;;;;;18.39;52.41;99386.88;4330524;33;32077;-91
2023/10/30 01:49:40;;;;;;;0.08;0.08;;;;;;;18.21;52.88;99388.41;4312777;33;33547;-92
2023/10/30 01:52:46;;;;;;;0.05;0.00;;;;;;;18.25;53.04;99381.84;4345858;32;32368;-92
2023/10/30 01:55:26;;;;;;;0.37;0.35;;;;;;;18.05;53.46;99383.47;4372636;32;32999;-92
2023/10/30 01:58:18;;;;;;;28.37;1.30;;;;;;;18.12;53.29;99381.97;4363256;32;33078;-91
2023/10/30 02:01:39;;;;;;;0.80;0.55;;;;;;;18.49;52.23;99381.63;4382948;32;34131;-90
2023/10/30 02:04:31;;;;;;;0.30;0.30;;;;;;;18.21;52.96;99385.72;4423761;32;33996;-88
2023/10/30 02:06:59;;;;;;;0.10;0.10;;;;;;;18.37;52.66;99379.00;4421509;32;32879;-90
2023/10/30 02:09:28;;;;;;;0.30;0.30;;;;;;;18.47;52.59;99376.41;4396431;32;32491;-89
2023/10/30 02:11:57;;;;;;;0.05;0.05;;;;;;;18.50;52.22;99370.78;4421272;32;33010;-89
2023/10/30 02:14:25;;;;;;;3.33;0.30;;;;;;;18.65;52.00;99374.84;4397859;32;32958;-87
2023/10/30 02:16:53;;;;;;;7.55;1.45;;;;;;;18.49;52.54;99374.44;4395984;32;33849;-87
2023/10/30 02:19:26;;;;;;;0.10;0.10;;;;;;;18.56;52.20;99378.31;4390707;32;32216;-88
2023/10/30 02:21:55;;;;;;;30.60;0.57;;;;;;;18.48;52.77;99374.59;4408525;32;34067;-88
2023/10/30 02:24:24;;;;;;;0.00;0.00;;;;;;;18.48;52.40;99362.06;4394813;32;34355;-87
2023/10/30 02:26:52;;;;;;;0.00;0.00;;;;;;;18.26;53.31;99370.16;4420142;32;33247;-87
2023/10/30 02:29:20;;;;;;;0.00;0.00;;;;;;;18.29;53.14;99367.25;4412218;32;32241;-87
2023/10/30 02:31:50;;;;;;;0.32;0.32;;;;;;;18.42;52.86;99373.28;4420392;32;33941;-88
2023/10/30 02:34:17;;;;;;;0.13;0.13;;;;;;;18.57;52.45;99372.00;4408345;32;32922;-89
2023/10/30 02:36:46;;;;;;;0.00;0.00;;;;;;;18.54;52.69;99377.59;4396933;32;33021;-89
2023/10/30 02:39:13;;;;;;;0.30;0.20;;;;;;;18.27;53.42;99374.53;4409705;32;31981;-89
2023/10/30 02:41:41;;;;;;;9.15;0.68;;;;;;;18.34;52.96;99379.25;4395101;32;33927;-88
2023/10/30 02:44:09;;;;;;;0.25;0.22;;;;;;;18.23;53.56;99384.63;4407378;32;33351;-88
2023/10/30 02:46:37;;;;;;;0.00;0.00;;;;;;;18.61;52.53;99392.16;4393950;32;33188;-88
2023/10/30 02:49:04;;;;;;;0.00;0.00;;;;;;;18.48;52.98;99385.28;4395772;32;32205;-87
2023/10/30 02:51:32;;;;;;;0.10;0.10;;;;;;;18.26;53.51;99388.88;4409396;32;32567;-88
2023/10/30 02:54:00;;;;;;;0.32;0.20;;;;;;;18.24;53.78;99390.84;4412447;32;33210;-88
2023/10/30 02:56:28;;;;;;;3.22;0.95;;;;;;;18.10;53.93;99389.28;4409326;32;32764;-88
2023/10/30 02:58:57;;;;;;;0.00;0.00;;;;;;;18.00;54.27;99385.66;4390486;32;32487;-88
2023/10/30 03:01:26;;;;;;;0.03;0.03;;;;;;;17.90;54.53;99393.56;4409135;32;33325;-88
2023/10/30 03:03:54;;;;;;;0.13;0.13;;;;;;;18.07;54.13;99387.69;4408648;32;33164;-88
2023/10/30 03:06:25;;;;;;;0.10;0.10;;;;;;;17.91;54.79;99384.56;4407970;32;33537;-88
2023/10/30 03:08:53;;;;;;;0.08;0.08;;;;;;;18.19;53.87;99385.84;4419015;32;33433;-88
2023/10/30 03:11:21;;;;;;;0.28;0.15;;;;;;;17.88;54.78;99384.81;4407542;32;33511;-87
2023/10/30 03:13:49;;;;;;;0.00;0.00;;;;;;;17.98;54.39;99390.25;4408271;32;32964;-88
2023/10/30 03:16:17;;;;;;;8.77;0.60;;;;;;;17.72;55.09;99387.00;4397240;32;32680;-89
2023/10/30 03:18:55;;;;;;;0.00;0.00;;;;;;;18.13;54.00;99389.84;4409068;32;32179;-89
2023/10/30 03:21:24;;;;;;;0.00;0.00;;;;;;;18.31;53.54;99389.34;4408461;32;32760;-89
2023/10/30 03:23:52;;;;;;;0.20;0.20;;;;;;;18.31;53.58;99392.84;4397851;32;34578;-90
2023/10/30 03:26:24;;;;;;;3.92;0.70;;;;;;;18.21;53.88;99396.41;4409549;32;32850;-89
2023/10/30 03:28:52;;;;;;;0.28;0.17;;;;;;;18.45;53.06;99389.03;4400092;32;33371;-90
2023/10/30 03:31:19;;;;;;;0.10;0.05;;;;;;;18.24;53.58;99405.03;4396798;32;34042;-90
2023/10/30 03:33:49;;;;;;;0.30;0.20;;;;;;;18.28;53.42;99397.63;4407355;32;33619;-89
2023/10/30 03:36:22;;;;;;;0.00;0.00;;;;;;;18.28;53.60;99403.81;4397145;32;34153;-90
2023/10/30 03:39:11;;;;;;;0.20;0.15;;;;;;;18.02;54.30;99400.56;4410416;32;32426;-91
2023/10/30 03:41:59;;;;;;;1.35;0.68;;;;;;;18.19;53.46;99395.69;4389053;32;32829;-90
2023/10/30 03:44:29;;;;;;;0.30;0.20;;;;;;;18.15;53.55;99398.63;4398434;32;32866;-90
2023/10/30 03:46:56;;;;;;;8.57;0.65;;;;;;;18.18;53.63;99394.81;4409055;32;33038;-90
2023/10/30 03:49:26;;;;;;;2.47;0.62;;;;;;;18.22;53.53;99398.09;4408874;32;33460;-90
2023/10/30 03:51:55;;;;;;;0.00;0.00;;;;;;;18.06;53.80;99398.50;4398173;32;33030;-90
2023/10/30 03:54:23;;;;;;;0.22;0.22;;;;;;;18.16;53.55;99388.78;4397729;32;33905;-91
2023/10/30 03:56:51;;;;;;;0.10;0.10;;;;;;;18.25;53.41;99388.03;4395668;32;32658;-90
2023/10/30 03:59:37;;;;;;;1.23;0.28;;;;;;;18.35;53.08;99390.78;4403526;32;32526;-90
2023/10/30 04:02:05;;;;;;;0.08;0.00;;;;;;;17.91;53.93;99393.44;4403495;32;32823;-90
2023/10/30 04:04:42;;;;;;;0.00;0.00;;;;;;;17.96;53.77;99386.88;4398123;32;32950;-90
2023/10/30 04:07:30;;;;;;;0.00;0.00;;;;;;;18.04;53.34;99384.41;4391577;32;32865;-90
2023/10/30 04:09:59;;;;;;;0.00;0.00;;;;;;;17.89;53.70;99381.16;4385026;32;32223;-89
2023/10/30 04:12:27;;;;;;;0.10;0.10;;;;;;;17.91;53.42;99381.91;4388376;32;34232;-90
2023/10/30 04:14:55;;;;;;;0.45;0.37;;;;;;;17.74;54.02;99393.94;4383913;32;32970;-90
2023/10/30 04:17:24;;;;;;;0.00;0.00;;;;;;;18.17;52.69;99375.28;4363538;32;32711;-90
2023/10/30 04:20:32;;;;;;;0.00;0.00;;;;;;;18.10;52.68;99382.09;4387496;32;33190;-90
2023/10/30 04:23:01;;;;;;;0.00;0.00;;;;;;;18.27;52.41;99382.53;4380234;32;32902;-90
2023/10/30 04:25:29;;;;;;;0.10;0.10;;;;;;;18.10;52.63;99382.09;4375327;32;33334;-89
2023/10/30 04:28:13;;;;;;;0.30;0.20;;;;;;;17.71;53.43;99382.59;4395825;32;33818;-88
2023/10/30 04:30:41;;;;;;;0.00;0.00;;;;;;;18.07;52.71;99389.53;4371092;32;32210;-88
2023/10/30 04:33:09;;;;;;;0.00;0.00;;;;;;;17.89;52.86;99397.19;4387512;32;32755;-88
2023/10/30 04:35:37;;;;;;;0.05;0.00;;;;;;;18.05;52.55;99392.31;4390179;32;33390;-88
2023/10/30 04:38:05;;;;;;;0.37;0.28;;;;;;;18.04;52.29;99393.31;4389450;32;32983;-88
2023/10/30 04:40:33;;;;;;;0.10;0.10;;;;;;;17.90;52.89;99382.88;4395012;32;32413;-90
2023/10/30 04:43:23;;;;;;;0.00;0.00;;;;;;;17.75;52.83;99373.41;4401585;32;33554;-90
2023/10/30 04:47:00;;;;;;;0.10;0.10;;;;;;;17.95;52.43;99380.69;4411110;32;32861;-90
2023/10/30 04:49:34;;;;;;;0.35;0.22;;;;;;;17.90;52.68;99377.53;4403245;32;33385;-90
2023/10/30 04:52:02;;;;;;;0.30;0.30;;;;;;;17.84;52.53;99383.34;4408989;32;32794;-89
2023/10/30 04:54:31;;;;;;;0.00;0.00;;;;;;;17.81;52.78;99379.12;4406888;32;32586;-89
2023/10/30 04:57:00;;;;;;;0.00;0.00;;;;;;;17.93;52.13;99387.97;4384141;32;33694;-89
2023/10/30 04:59:28;;;;;;;0.03;0.03;;;;;;;18.05;52.01;99386.13;4409157;32;32861;-89
2023/10/30 05:01:57;;;;;;;0.00;0.00;;;;;;;18.08;51.87;99380.53;4410486;32;31984;-89
2023/10/30 05:04:25;;;;;;;0.05;0.05;;;;;;;18.20;51.37;99384.03;4396443;32;33909;-89
2023/10/30 05:06:53;;;;;;;0.10;0.10;;;;;;;17.92;51.90;99391.63;4400815;32;33029;-88
2023/10/30 05:09:50;;;;;;;0.17;0.17;;;;;;;18.04;51.64;99382.63;4417109;32;34388;-92
2023/10/30 05:12:30;;;;;;;0.20;0.00;;;;;;;17.82;52.25;99396.00;4406530;32;33063;-92
2023/10/30 05:15:52;;;;;;;0.15;0.15;;;;;;;17.94;52.17;99391.47;4383925;32;33872;-92
2023/10/30 05:18:39;;;;;;;0.17;0.10;;;;;;;17.84;52.17;99388.69;4375620;32;32774;-92
2023/10/30 05:21:46;;;;;;;0.05;0.03;;;;;;;17.94;51.81;99395.00;4390574;32;33320;-92
2023/10/30 05:24:33;;;;;;;0.00;0.00;;;;;;;17.99;51.91;99403.47;4370962;32;32115;-90
2023/10/30 05:27:02;;;;;;;0.00;0.00;;;;;;;17.88;52.19;99411.53;4379364;32;32920;-89
2023/10/30 05:29:31;;;;;;;0.68;0.55;;;;;;;17.74;52.31;99403.75;4354181;32;33278;-89
2023/10/30 05:32:54;;;;;;;0.00;0.00;;;;;;;18.02;51.70;99413.09;4392234;32;32605;-89
2023/10/30 05:35:23;;;;;;;0.10;0.10;;;;;;;18.06;51.44;99414.53;4385850;32;32195;-89
2023/10/30 05:37:51;;;;;;;0.00;0.00;;;;;;;18.24;51.04;99428.25;4379356;32;32965;-88
2023/10/30 05:40:21;;;;;;;1.27;0.60;;;;;;;17.88;51.96;99422.19;4379948;32;32964;-91
2023/10/30 05:42:49;;;;;;;0.20;0.20;;;;;;;17.99;51.47;99422.19;4391852;32;33477;-91
2023/10/30 05:45:16;;;;;;;0.20;0.20;;;;;;;17.94;51.83;99421.69;4392889;32;32681;-92
2023/10/30 05:47:44;;;;;;;0.52;0.28;;;;;;;17.85;51.84;99426.00;4384116;32;33295;-91
2023/10/30 05:50:13;;;;;;;0.20;0.20;;;;;;;17.64;52.48;99431.16;4414611;32;32521;-93
2023/10/30 05:52:42;;;;;;;0.03;0.03;;;;;;;17.85;51.90;99428.66;4406937;32;33430;-91
2023/10/30 05:55:10;;;;;;;0.08;0.08;;;;;;;17.88;51.99;99431.06;4403130;32;32450;-92
2023/10/30 05:57:41;;;;;;;4.12;1.15;;;;;;;17.67;52.46;99441.59;4407833;32;33473;-91
2023/10/30 06:00:09;;;;;;;0.10;0.10;;;;;;;17.80;52.22;99440.66;4407710;32;34007;-89
2023/10/30 06:02:37;;;;;;;0.10;0.10;;;;;;;17.95;51.77;99444.81;4414205;32;33248;-89
2023/10/30 06:05:08;;;;;;;0.00;0.00;;;;;;;18.29;51.02;99442.06;4408554;32;32316;-89
2023/10/30 06:07:36;;;;;;;0.20;0.20;;;;;;;18.00;51.61;99445.28;4405494;32;33513;-91
2023/10/30 06:11:02;;;;;;;0.95;0.20;;;;;;;17.97;51.75;99442.84;4418211;32;34701;-91
2023/10/30 06:13:31;;;;;;;1.52;0.62;;;;;;;18.29;50.77;99452.78;4405521;32;32798;-91
2023/10/30 06:16:02;;;;;;;0.15;0.15;;;;;;;18.15;51.09;99457.41;4408334;32;33026;-92
2023/10/30 06:18:30;;;;;;;1.92;1.25;;;;;;;18.26;50.90;99450.34;4410316;32;32888;-92
2023/10/30 06:21:18;;;;;;;0.00;0.00;;;;;;;18.15;51.18;99449.38;4384647;32;32769;-92
2023/10/30 06:23:47;;;;;;;0.00;0.00;;;;;;;18.08;51.99;99450.00;4380951;32;33628;-91
2023/10/30 06:26:16;;;;;;;0.40;0.35;;;;;;;18.14;51.55;99458.38;4385368;32;32582;-90
2023/10/30 06:28:46;;;;;;;0.00;0.00;;;;;;;18.25;51.31;99456.66;4384690;32;34130;-91
2023/10/30 06:31:16;;;;;;;3.85;0.25;;;;;;;18.20;51.41;99450.84;4386691;32;33991;-91
2023/10/30 06:33:46;;;;;;;0.00;0.00;;;;;;;18.07;51.96;99456.31;4376469;32;34226;-91
2023/10/30 06:36:16;;;;;;;0.45;0.20;;;;;;;18.34;51.30;99451.41;4387280;32;32441;-91
2023/10/30 06:39:07;;;;;;;0.00;0.00;;;;;;;18.05;51.85;99458.28;4388987;32;33565;-91
2023/10/30 06:41:41;;;;;;;0.00;0.00;;;;;;;18.53;50.86;99456.09;4387177;32;32973;-90
2023/10/30 06:44:09;;;;;;;0.30;0.28;;;;;;;18.27;51.34;99466.22;4390062;32;33086;-91
2023/10/30 06:46:44;;;;;;;0.65;0.40;;;;;;;18.46;51.10;99468.25;4377800;32;32294;-91
2023/10/30 06:49:12;;;;;;;0.17;0.08;;;;;;;17.96;52.10;99473.19;4388241;32;32728;-91
2023/10/30 06:52:00;;;;;;;0.30;0.10;;;;;;;18.30;51.90;99475.84;4390414;32;33373;-90
2023/10/30 06:54:28;;;;;;;0.20;0.20;;;;;;;17.91;52.58;99480.72;4393177;32;33542;-89
2023/10/30 06:56:56;;;;;;;0.00;0.00;;;;;;;18.11;51.87;99477.31;4387355;32;32202;-85
2023/10/30 06:59:24;;;;;;;0.00;0.00;;;;;;;18.09;51.97;99479.28;4401052;32;33782;-85
2023/10/30 07:01:52;;;;;;;0.00;0.00;;;;;;;18.25;51.93;99483.37;4390868;32;34073;-86
2023/10/30 07:04:22;;;;;;;0.32;0.30;;;;;;;18.33;51.67;99476.44;4382885;32;33628;-85
2023/10/30 07:06:51;;;;;;;0.32;0.30;;;;;;;18.37;51.36;99479.69;4385327;32;32285;-84
2023/10/30 07:09:21;;;;;;;0.10;0.10;;;;;;;18.55;50.92;99480.03;4387870;32;33953;-85
2023/10/30 07:11:52;;;;;;;0.55;0.28;;;;;;;18.59;50.95;99477.00;4394425;32;33350;-86
2023/10/30 07:14:19;;;;;;;0.43;0.13;;;;;;;18.61;50.33;99474.19;4388344;32;32832;-85
2023/10/30 07:16:47;;;;;;;0.10;0.08;;;;;;;18.63;50.94;99477.59;4394975;32;32694;-86
2023/10/30 07:19:31;;;;;;;0.08;0.05;;;;;;;18.84;50.36;99480.34;4384794;32;33783;-86
2023/10/30 07:21:59;;;;;;;0.00;0.00;;;;;;;18.91;50.00;99478.88;4381841;32;34783;-85
2023/10/30 07:24:26;;;;;;;0.28;0.28;;;;;;;19.08;49.66;99489.00;4385269;32;33079;-84
2023/10/30 07:26:57;;;;;;;0.00;0.00;;;;;;;19.26;49.26;99485.75;4390635;32;32389;-85
2023/10/30 07:29:25;;;;;;;0.00;0.00;;;;;;;19.25;49.02;99484.91;4390585;32;32936;-85
2023/10/30 07:31:55;;;;;;;0.10;0.10;;;;;;;19.25;49.07;99490.25;4395724;32;33690;-89
2023/10/30 07:34:23;;;;;;;0.30;0.30;;;;;;;19.49;48.92;99487.31;4396969;32;33294;-89
2023/10/30 07:36:51;;;;;;;0.05;0.05;;;;;;;19.38;49.24;99490.06;4394057;32;33470;-89
2023/10/30 07:39:19;;;;;;;0.90;0.22;;;;;;;19.27;49.29;99490.97;4399193;32;33603;-89
2023/10/30 07:41:47;;;;;;;0.17;0.17;;;;;;;19.48;48.83;99490.13;4387854;32;34117;-89
2023/10/30 07:44:17;;;;;;;0.75;0.32;;;;;;;19.17;49.78;99482.87;4397636;32;34618;-87
2023/10/30 07:46:46;;;;;;;0.00;0.00;;;;;;;19.50;48.94;99491.69;4385879;32;33065;-90
2023/10/30 07:49:16;;;;;;;0.00;0.00;;;;;;;19.64;49.09;99498.56;4395507;32;33339;-90
2023/10/30 07:51:45;;;;;;;1.10;0.15;;;;;;;19.42;48.98;99494.19;4393236;32;33365;-90
2023/10/30 07:54:15;;;;;;;0.03;0.03;;;;;;;19.57;49.00;99490.19;4400225;32;33492;-90
2023/10/30 07:56:42;;;;;;;0.03;0.03;;;;;;;19.85;48.31;99498.56;4377659;32;32847;-92
2023/10/30 07:59:10;;;;;;;0.82;0.10;;;;;;;19.97;48.14;99500.16;4386845;32;33778;-92
2023/10/30 08:01:40;;;;;;;0.52;0.52;;;;;;;19.88;48.28;99503.63;4380909;32;33824;-92
2023/10/30 08:04:10;;;;;;;0.10;0.10;;;;;;;19.66;48.06;99500.16;4392640;32;32971;-92
2023/10/30 08:06:38;;;;;;;0.60;0.50;;;;;;;19.72;48.28;99514.84;4401286;32;32953;-92
2023/10/30 08:09:06;;;;;;;0.03;0.03;;;;;;;20.00;47.98;99507.09;4380476;32;33125;-92
2023/10/30 08:11:35;;;;;;;0.00;0.00;;;;;;;20.47;47.09;99500.25;4397847;32;33648;-92
2023/10/30 08:14:02;;;;;;;0.05;0.00;;;;;;;20.13;47.44;99488.94;4393951;32;33237;-92
2023/10/30 08:16:32;;;;;;;0.22;0.22;;;;;;;20.48;46.77;99487.69;4397289;32;32638;-92
2023/10/30 08:19:20;;;;;;;0.30;0.20;;;;;;;20.24;47.13;99491.53;4402483;32;32710;-92
2023/10/30 08:21:48;;;;;;;0.35;0.22;;;;;;;20.57;46.51;99490.37;4412171;32;33077;-92
2023/10/30 08:24:18;;;;;;;3.72;1.08;;;;;;;20.73;46.64;99494.34;4405876;32;33862;-92
2023/10/30 08:26:48;;;;;;;0.13;0.13;;;;;;;20.78;46.76;99482.22;4403677;32;32822;-92
2023/10/30 08:29:16;;;;;;;0.00;0.00;;;;;;;20.73;46.89;99483.63;4410365;32;32864;-92
2023/10/30 08:31:44;;;;;;;0.00;0.00;;;;;;;20.76;46.46;99478.84;4409512;32;33415;-92
2023/10/30 08:34:12;;;;;;;1.20;0.40;;;;;;;20.94;46.68;99471.78;4396684;32;32591;-92
2023/10/30 08:36:40;;;;;;;0.00;0.00;;;;;;;20.92;46.37;99464.84;4398621;32;32494;-91
2023/10/30 08:39:08;;;;;;;0.10;0.10;;;;;;;21.20;46.11;99466.66;4392588;32;33006;-92
2023/10/30 08:41:37;;;;;;;0.00;0.00;;;;;;;21.02;45.99;99471.06;4411478;32;33401;-92
2023/10/30 08:44:05;;;;;;;0.10;0.10;;;;;;;21.09;45.70;99474.03;4420402;32;32915;-92
2023/10/30 08:46:38;;;;;;;0.55;0.15;;;;;;;21.35;45.97;99475.16;4403961;32;32257;-93
2023/10/30 08:49:06;;;;;;;0.00;0.00;;;;;;;21.27;45.62;99469.66;4409203;32;34389;-92
2023/10/30 08:51:43;;;;;;;0.47;0.40;;;;;;;21.55;45.46;99459.84;4418016;32;33111;-92
2023/10/30 08:54:30;;;;;;;0.17;0.17;;;;;;;21.56;45.54;99461.56;4401673;32;33951;-93
2023/10/30 08:56:59;;;;;;;0.00;0.00;;;;;;;21.51;45.63;99463.84;4415759;32;32924;-91
2023/10/30 08:59:43;;;;;;;0.10;0.10;;;;;;;21.66;45.75;99461.53;4394237;32;33676;-92
2023/10/30 09:02:11;;;;;;;0.00;0.00;;;;;;;22.17;44.74;99460.22;4402470;32;33333;-92
2023/10/30 09:04:39;;;;;;;0.08;0.00;;;;;;;22.19;44.67;99464.47;4393959;32;33205;-91
2023/10/30 09:07:07;;;;;;;0.00;0.00;;;;;;;22.22;44.75;99466.03;4393207;32;31666;-91
2023/10/30 09:09:35;;;;;;;0.08;0.00;;;;;;;22.43;44.87;99471.12;4403245;32;33101;-90
2023/10/30 09:12:04;;;;;;;0.00;0.00;;;;;;;22.68;43.50;99458.78;4402670;32;33029;-91
2023/10/30 09:14:32;;;;;;;0.35;0.35;;;;;;;22.69;43.97;99472.09;4392351;32;32423;-90
2023/10/30 09:17:01;;;;;;;0.17;0.17;;;;;;;22.70;43.30;99471.09;4401930;32;32610;-91
2023/10/30 09:19:31;;;;;;;1.27;0.30;;;;;;;22.70;43.45;99472.94;4404974;32;33756;-91
2023/10/30 09:21:59;;;;;;;0.00;0.00;;;;;;;22.64;44.32;99474.38;4387842;32;31763;-91
2023/10/30 09:24:27;;;;;;;0.20;0.20;;;;;;;22.94;43.59;99456.22;4394641;32;32664;-91
2023/10/30 09:26:55;;;;;;;0.85;0.20;;;;;;;22.88;43.66;99481.00;4389029;32;32561;-90
2023/10/30 09:29:24;;;;;;;2.08;1.05;;;;;;;23.12;43.30;99491.19;4387530;32;33735;-91
2023/10/30 09:31:52;;;;;;;0.20;0.20;;;;;;;23.23;43.12;99474.81;4403213;32;33119;-92
2023/10/30 09:34:20;;;;;;;0.00;0.00;;;;;;;23.25;42.53;99494.34;4388067;32;33948;-90
2023/10/30 09:36:50;;;;;;;0.43;0.20;;;;;;;23.39;42.69;99487.56;4399094;32;32424;-90
2023/10/30 09:39:18;;;;;;;0.37;0.37;;;;;;;23.25;42.28;99484.41;4388644;32;33945;-91
2023/10/30 09:41:46;;;;;;;0.00;0.00;;;;;;;23.14;42.47;99476.59;4404579;32;33687;-90
2023/10/30 09:44:14;;;;;;;0.00;0.00;;;;;;;23.34;42.39;99474.56;4415110;32;32798;-90
2023/10/30 09:46:43;;;;;;;1.02;0.30;;;;;;;23.36;42.72;99479.78;4376454;32;33805;-90
2023/10/30 09:49:13;;;;;;;0.52;0.10;;;;;;;22.92;43.06;99479.72;4404101;32;34446;-90
2023/10/30 09:51:43;;;;;;;0.03;0.00;;;;;;;22.83;43.06;99473.38;4388815;32;32567;-90
2023/10/30 09:54:12;;;;;;;0.10;0.10;;;;;;;23.34;42.07;99468.31;4403595;32;34365;-90
2023/10/30 09:56:40;;;;;;;0.00;0.00;;;;;;;22.49;43.63;99471.34;4401656;32;32606;-90
2023/10/30 09:59:08;;;;;;;0.00;0.00;;;;;;;22.74;43.00;99469.78;4404604;32;33268;-90
2023/10/30 10:01:36;;;;;;;3.10;0.28;;;;;;;22.76;43.64;99472.31;4399497;32;33026;-91
2023/10/30 10:04:04;;;;;;;2.22;0.98;;;;;;;23.20;42.96;99456.25;4400368;32;32738;-90
2023/10/30 10:06:32;;;;;;;0.00;0.00;;;;;;;22.94;43.59;99464.28;4405126;32;32340;-91
2023/10/30 10:09:01;;;;;;;0.05;0.05;;;;;;;22.88;43.53;99462.16;4399242;32;32944;-91
2023/10/30 10:11:36;;;;;;;1.85;0.15;;;;;;;22.66;44.25;99450.03;4401510;32;32853;-90
2023/10/30 10:14:04;;;;;;;2.20;0.80;;;;;;;22.89;43.51;99451.28;4389451;32;31923;-90
2023/10/30 10:16:35;;;;;;;10.45;0.65;;;;;;;22.56;44.30;99457.31;4379734;32;33655;-90
2023/10/30 10:19:22;;;;;;;0.10;0.10;;;;;;;22.61;44.39;99463.09;4400567;32;33824;-90
2023/10/30 10:21:52;;;;;;;0.00;0.00;;;;;;;23.21;43.54;99464.16;4389141;32;32711;-90
2023/10/30 10:24:29;;;;;;;0.00;0.00;;;;;;;23.30;43.25;99466.94;4389351;32;33768;-90
2023/10/30 10:27:03;;;;;;;0.28;0.22;;;;;;;22.96;44.06;99457.72;4394713;32;32761;-91
2023/10/30 10:29:32;;;;;;;1.52;0.30;;;;;;;23.56;43.13;99448.94;4388604;32;32931;-91
2023/10/30 10:32:01;;;;;;;0.68;0.25;;;;;;;23.23;42.80;99451.41;4402996;32;32967;-90
2023/10/30 10:34:33;;;;;;;0.37;0.17;;;;;;;22.80;43.32;99464.78;4393158;32;34666;-91
2023/10/30 10:37:01;;;;;;;0.50;0.50;;;;;;;23.02;42.84;99461.66;4404738;32;31985;-88
2023/10/30 10:39:53;;;;;;;0.00;0.00;;;;;;;22.84;43.21;99471.56;4392771;32;32774;-88
2023/10/30 10:42:26;;;;;;;0.00;0.00;;;;;;;22.22;44.14;99469.56;4401425;32;33898;-88
2023/10/30 10:44:55;;;;;;;0.37;0.37;;;;;;;22.24;44.20;99472.94;4388823;32;33876;-89
2023/10/30 10:47:23;;;;;;;0.10;0.00;;;;;;;22.33;44.59;99476.56;4402786;32;32376;-89
2023/10/30 10:49:51;;;;;;;0.00;0.00;;;;;;;22.67;43.97;99471.38;4386300;32;33016;-88
2023/10/30 10:52:19;;;;;;;0.00;0.00;;;;;;;22.42;44.23;99458.69;4377517;32;33767;-87
2023/10/30 10:55:03;;;;;;;0.10;0.08;;;;;;;22.13;44.22;99457.00;4404846;32;33829;-89
2023/10/30 10:57:38;;;;;;;0.10;0.03;;;;;;;22.28;44.70;99453.81;4387776;32;33452;-89
2023/10/30 11:00:09;;;;;;;0.10;0.03;;;;;;;22.44;44.51;99452.13;4390466;32;33866;-90
2023/10/30 11:02:38;;;;;;;0.10;0.10;;;;;;;22.32;44.63;99441.75;4397330;32;33733;-89
2023/10/30 11:05:07;;;;;;;0.00;0.00;;;;;;;23.18;43.59;99451.03;4388999;32;32806;-89
2023/10/30 11:07:41;;;;;;;0.05;0.03;;;;;;;23.02;43.69;99450.03;4404677;32;32453;-89
2023/10/30 11:10:17;;;;;;;0.57;0.57;;;;;;;22.65;44.42;99448.34;4393249;32;32711;-90
2023/10/30 11:13:24;;;;;;;3.12;0.20;;;;;;;22.84;43.54;99444.66;4404262;32;33943;-89
2023/10/30 11:15:59;;;;;;;3.22;0.43;;;;;;;22.82;43.96;99439.41;4383423;32;32688;-89
2023/10/30 11:18:27;;;;;;;0.08;0.05;;;;;;;23.16;43.16;99436.84;4401511;32;32872;-89
2023/10/30 11:21:12;;;;;;;3.10;0.30;;;;;;;23.11;43.55;99433.78;4390516;32;33130;-88
2023/10/30 11:23:44;;;;;;;6.97;0.43;;;;;;;23.26;43.35;99431.38;4401733;32;34276;-90
2023/10/30 11:26:30;;;;;;;2.10;0.25;;;;;;;23.57;42.59;99439.00;4412891;32;32825;-89
2023/10/30 11:28:58;;;;;;;0.22;0.22;;;;;;;23.34;42.51;99431.44;4396693;32;32678;-90
2023/10/30 11:31:32;;;;;;;7.03;0.45;;;;;;;23.70;42.34;99429.53;4387626;32;33250;-89
2023/10/30 11:34:14;;;;;;;0.00;0.00;;;;;;;23.55;42.17;99425.72;4386777;32;32723;-89
2023/10/30 11:36:46;;;;;;;0.37;0.22;;;;;;;23.53;42.81;99419.63;4386357;32;33372;-89
2023/10/30 11:39:20;;;;;;;0.85;0.60;;;;;;;23.75;42.27;99416.41;4394805;32;32177;-89
2023/10/30 11:41:55;;;;;;;0.00;0.00;;;;;;;23.99;42.44;99418.38;4394807;32;33936;-90
2023/10/30 11:44:29;;;;;;;1.35;0.65;;;;;;;24.11;41.89;99421.59;4404788;32;33083;-90
2023/10/30 11:46:57;;;;;;;0.15;0.05;;;;;;;23.92;41.41;99416.47;4380717;32;33749;-90
2023/10/30 11:49:31;;;;;;;0.32;0.28;;;;;;;24.02;41.78;99407.28;4385818;32;32760;-91
2023/10/30 11:51:58;;;;;;;0.05;0.05;;;;;;;24.09;41.55;99407.44;4406544;32;32758;-91
2023/10/30 11:54:33;;;;;;;1.77;0.80;;;;;;;24.08;41.09;99394.13;4395571;32;34312;-91
2023/10/30 11:57:02;;;;;;;0.32;0.10;;;;;;;23.97;41.79;99392.56;4398499;32;32921;-91
2023/10/30 11:59:30;;;;;;;1.52;0.22;;;;;;;23.94;41.66;99393.75;4391746;32;32099;-91
2023/10/30 12:01:59;;;;;;;0.10;0.10;;;;;;;23.84;42.41;99392.19;4392605;32;32574;-91